createdAt,value
2019-03-10T10:42:35.538Z,26.97
2019-03-10T10:45:16.487Z,31.10
2019-03-10T10:47:57.460Z,34.50
2019-03-10T10:50:38.453Z,29.47
2019-03-10T10:53:21.402Z,30.73
2019-03-10T10:56:00.824Z,26.47
2019-03-10T10:58:41.464Z,35.70
2019-03-10T11:01:22.431Z,41.73
2019-03-10T11:04:03.114Z,32.23
2019-03-10T11:06:44.213Z,30.83
2019-03-10T11:09:25.139Z,32.03
2019-03-10T11:12:06.043Z,32.13
2019-03-10T11:14:46.803Z,31.10
2019-03-10T11:17:27.282Z,29.00
2019-03-10T11:20:07.820Z,28.77
2019-03-10T11:22:49.012Z,30.57
2019-03-10T11:25:29.884Z,32.90
2019-03-10T11:28:10.412Z,29.87
2019-03-10T11:30:50.597Z,31.77
2019-03-10T11:33:30.942Z,33.63
2019-03-10T11:36:10.829Z,32.57
2019-03-10T11:38:51.401Z,29.23
2019-03-10T11:41:34.069Z,32.23
2019-03-10T11:44:12.495Z,30.97
2019-03-10T11:46:52.541Z,29.40
2019-03-10T11:49:33.353Z,34.30
2019-03-10T11:52:14.209Z,34.67
2019-03-10T11:54:55.195Z,43.10
2019-03-10T11:57:35.831Z,32.73
2019-03-10T12:00:16.406Z,29.90
2019-03-10T12:02:58.130Z,33.10
2019-03-10T12:05:38.930Z,36.13
2019-03-10T12:08:19.152Z,31.23
2019-03-10T12:10:59.892Z,30.00
2019-03-10T12:13:40.642Z,34.03
2019-03-10T12:16:21.785Z,31.43
2019-03-10T12:19:02.726Z,34.77
2019-03-10T12:21:43.730Z,30.73
2019-03-10T12:24:24.697Z,30.23
2019-03-10T12:27:05.500Z,31.20
2019-03-10T12:29:46.316Z,32.87
2019-03-10T12:32:27.122Z,30.37
2019-03-10T12:35:08.147Z,36.90
2019-03-10T12:37:49.056Z,42.50
2019-03-10T12:40:30.130Z,40.63
2019-03-10T12:43:11.109Z,38.70
2019-03-10T12:45:51.638Z,44.60
2019-03-10T12:48:32.450Z,48.87
2019-03-10T12:51:13.977Z,54.23
2019-03-10T12:53:54.961Z,51.20
2019-03-10T12:56:35.441Z,57.83
2019-03-10T12:59:16.841Z,61.60
2019-03-10T13:01:58.035Z,62.10
2019-03-10T13:04:38.754Z,57.77
2019-03-10T13:07:19.493Z,56.23
2019-03-10T13:10:00.030Z,59.00
2019-03-10T13:12:40.003Z,52.60
2019-03-10T13:15:23.948Z,50.77
2019-03-10T13:18:04.160Z,46.87
2019-03-10T13:20:45.208Z,51.43
2019-03-10T13:23:25.909Z,49.90
2019-03-10T13:26:06.183Z,44.27
2019-03-10T13:28:46.158Z,53.40
2019-03-10T13:31:26.619Z,46.10
2019-03-10T13:34:07.113Z,48.67
2019-03-10T13:36:47.062Z,45.53
2019-03-10T13:39:28.280Z,44.47
2019-03-10T13:42:08.353Z,42.17
2019-03-10T13:44:48.235Z,46.20
2019-03-10T13:47:28.181Z,50.50
2019-03-10T13:50:08.301Z,47.10
2019-03-10T13:52:48.912Z,46.27
2019-03-10T13:55:28.706Z,45.63
2019-03-10T13:58:09.950Z,48.53
2019-03-10T14:00:50.158Z,42.77
2019-03-10T14:03:30.588Z,44.20
2019-03-10T14:06:10.706Z,45.47
2019-03-10T14:08:50.919Z,43.57
2019-03-10T14:11:31.169Z,44.57
2019-03-10T14:14:11.405Z,44.20
2019-03-10T14:16:51.495Z,44.90
2019-03-10T14:19:31.666Z,50.37
2019-03-10T14:22:11.970Z,55.13
2019-03-10T14:24:52.310Z,48.70
2019-03-10T14:27:33.293Z,53.33
2019-03-10T14:30:13.567Z,50.13
2019-03-10T14:32:53.807Z,49.67
2019-03-10T14:35:33.996Z,51.13
2019-03-10T14:38:14.735Z,54.17
2019-03-10T14:40:55.379Z,53.47
2019-03-10T14:43:36.160Z,56.50
2019-03-10T14:46:16.415Z,44.33
2019-03-10T14:48:57.382Z,52.40
2019-03-10T14:51:37.716Z,52.43
2019-03-10T14:54:18.817Z,52.90
2019-03-10T14:57:02.420Z,52.70
2019-03-10T14:59:40.389Z,59.70
2019-03-10T15:02:20.519Z,73.97
2019-03-10T15:05:00.668Z,53.07
2019-03-10T15:07:40.691Z,52.80
2019-03-10T15:10:20.734Z,63.90
2019-03-10T15:13:00.587Z,63.10
2019-03-10T15:15:41.253Z,65.23
2019-03-10T15:18:21.633Z,67.03
2019-03-10T15:21:02.132Z,62.13
2019-03-10T15:23:42.498Z,67.83
2019-03-10T15:26:23.151Z,59.10
2019-03-10T15:29:03.504Z,71.67
2019-03-10T15:31:43.711Z,67.60
2019-03-10T15:34:23.936Z,78.13
2019-03-10T15:37:04.808Z,80.27
2019-03-10T15:39:45.193Z,73.87
2019-03-10T15:42:25.144Z,64.90
2019-03-10T15:45:08.640Z,69.47
2019-03-10T15:47:49.790Z,70.37
2019-03-10T15:50:29.983Z,69.13
2019-03-10T15:53:10.694Z,72.07
2019-03-10T15:55:51.017Z,75.10
2019-03-10T15:58:31.362Z,70.63
2019-03-10T16:01:11.146Z,82.53
2019-03-10T16:03:51.175Z,73.63
2019-03-10T16:06:31.455Z,80.33
2019-03-10T16:09:11.640Z,81.23
2019-03-10T16:11:52.123Z,79.97
2019-03-10T16:14:32.471Z,77.90
2019-03-10T16:17:12.503Z,77.53
2019-03-10T16:19:52.563Z,76.87
2019-03-10T16:22:34.735Z,80.07
2019-03-10T16:25:13.891Z,78.40
2019-03-10T16:27:54.534Z,78.93
2019-03-10T16:30:40.435Z,84.33
2019-03-10T16:33:26.977Z,83.80
2019-03-10T16:36:16.830Z,78.73
2019-03-10T16:39:03.892Z,80.20
2019-03-10T16:41:53.470Z,82.93
2019-03-10T16:44:37.002Z,85.13
2019-03-10T16:47:18.463Z,80.20
2019-03-10T16:49:58.725Z,88.83
2019-03-10T16:52:39.931Z,91.87
2019-03-10T16:55:22.334Z,88.80
2019-03-10T16:58:06.399Z,96.47
2019-03-10T17:00:47.921Z,96.37
2019-03-10T17:03:32.708Z,93.60
2019-03-10T17:06:16.514Z,83.43
2019-03-10T17:09:04.789Z,98.73
2019-03-10T17:11:50.413Z,86.13
2019-03-10T17:14:37.360Z,88.90
2019-03-10T17:17:24.440Z,83.67
2019-03-10T17:20:06.021Z,83.60
2019-03-10T17:22:46.559Z,91.27
2019-03-10T17:25:26.581Z,85.93
2019-03-10T17:28:11.075Z,86.93
2019-03-10T17:30:55.227Z,83.00
2019-03-10T17:33:38.613Z,89.37
2019-03-10T17:36:25.145Z,87.00
2019-03-10T17:39:12.839Z,89.00
2019-03-10T17:41:59.140Z,86.17
2019-03-10T17:44:47.099Z,80.80
2019-03-10T17:50:21.126Z,72.47
2019-03-10T17:53:07.803Z,91.87
2019-03-10T17:55:55.263Z,76.87
2019-03-10T17:58:43.276Z,77.50
2019-03-10T18:01:28.292Z,79.07
2019-03-10T18:04:14.423Z,75.90
2019-03-10T18:06:59.443Z,82.70
2019-03-10T18:09:48.165Z,76.43
2019-03-10T18:12:36.238Z,80.63
2019-03-10T18:15:24.588Z,79.23
2019-03-10T18:20:52.913Z,89.30
2019-03-10T18:23:34.170Z,83.07
2019-03-10T18:26:14.882Z,72.43
2019-03-10T18:28:57.931Z,69.00
2019-03-10T18:37:04.540Z,75.77
2019-03-10T18:39:48.316Z,66.17
2019-03-10T18:45:12.511Z,61.97
2019-03-10T18:47:52.696Z,63.80
2019-03-10T18:50:33.853Z,70.60
2019-03-10T18:53:14.372Z,60.73
2019-03-10T18:55:54.989Z,63.90
2019-03-10T19:01:21.318Z,57.07
2019-03-10T19:04:01.357Z,66.07
2019-03-10T19:06:42.310Z,60.33
